Time;durP1;ratioP1;P1;durP2;ratioP2;P2;SDS_P1;SDS_P2;PMS_P1;PMS_P2;Temp;Humidity;BMP_temperature;BMP_pressure;BME280_temperature;BME280_humidity;BME280_pressure;Samples;Min_cycle;Max_cycle;Signal;HPM_P1;HPM_P2
2021/10/15 00:00:31;;;;;;;12.38;3.58;;;13.40;99.90;;;;;;4978749;28;20148;-78
2021/10/15 00:03:00;;;;;;;8.70;2.65;;;13.40;99.90;;;;;;4990590;28;20050;-79
2021/10/15 00:05:27;;;;;;;10.30;3.08;;;13.50;99.90;;;;;;5005191;28;20855;-78
2021/10/15 00:07:52;;;;;;;11.32;2.95;;;13.40;99.90;;;;;;4992600;28;20513;-79
2021/10/15 00:10:18;;;;;;;11.63;3.42;;;13.40;99.90;;;;;;4993821;28;20053;-78
2021/10/15 00:12:44;;;;;;;9.10;3.03;;;13.30;99.90;;;;;;4992114;28;20056;-79
2021/10/15 00:15:09;;;;;;;9.75;3.13;;;13.60;99.90;;;;;;4991976;28;20034;-80
2021/10/15 00:17:35;;;;;;;8.05;3.03;;;13.40;99.90;;;;;;4996257;28;20133;-79
2021/10/15 00:20:01;;;;;;;7.00;2.78;;;13.50;99.90;;;;;;4994080;28;20087;-78
2021/10/15 00:22:27;;;;;;;9.52;2.80;;;13.50;99.90;;;;;;4976693;28;20368;-78
2021/10/15 00:24:52;;;;;;;9.32;2.80;;;13.50;99.90;;;;;;4992524;28;20551;-78
2021/10/15 00:27:18;;;;;;;9.43;2.67;;;13.50;99.90;;;;;;4975294;28;20046;-78
2021/10/15 00:29:43;;;;;;;14.20;3.22;;;13.50;99.90;;;;;;4970517;28;20046;-79
2021/10/15 00:32:09;;;;;;;9.07;3.00;;;13.50;99.90;;;;;;4957840;28;20046;-79
2021/10/15 00:34:35;;;;;;;11.45;3.10;;;13.50;99.90;;;;;;4974499;28;20043;-79
2021/10/15 00:37:00;;;;;;;9.32;2.55;;;13.50;99.90;;;;;;4975073;28;20042;-78
2021/10/15 00:39:26;;;;;;;12.52;3.45;;;13.50;99.90;;;;;;4959279;28;20040;-78
2021/10/15 00:41:51;;;;;;;12.35;2.97;;;13.50;99.90;;;;;;4973083;28;20377;-79
2021/10/15 00:44:17;;;;;;;13.13;3.33;;;13.50;99.90;;;;;;4973110;28;20039;-79
2021/10/15 00:46:43;;;;;;;11.00;3.00;;;13.50;99.90;;;;;;4972296;28;20556;-79
2021/10/15 00:49:11;;;;;;;10.25;3.10;;;13.50;99.90;;;;;;4971667;28;20050;-78
2021/10/15 00:51:39;;;;;;;8.20;3.30;;;13.60;99.90;;;;;;4969955;28;20117;-78
2021/10/15 00:54:04;;;;;;;9.85;2.80;;;13.60;99.90;;;;;;4972888;28;20473;-79
2021/10/15 00:56:31;;;;;;;12.13;3.30;;;13.60;99.90;;;;;;4955636;28;20082;-79
2021/10/15 00:58:59;;;;;;;10.05;2.97;;;13.50;99.90;;;;;;4958354;28;20109;-78
2021/10/15 01:01:25;;;;;;;7.30;2.78;;;13.50;99.90;;;;;;4972306;28;20041;-78
2021/10/15 01:03:50;;;;;;;11.63;3.45;;;13.50;99.90;;;;;;4968148;28;20055;-79
2021/10/15 01:06:16;;;;;;;9.90;3.28;;;13.60;99.90;;;;;;4974654;28;20050;-78
2021/10/15 01:08:46;;;;;;;8.15;3.42;;;13.50;99.90;;;;;;4969027;28;20365;-78
2021/10/15 01:11:16;;;;;;;8.75;3.42;;;13.50;99.90;;;;;;4963442;28;20042;-79
2021/10/15 01:13:43;;;;;;;16.67;3.92;;;13.60;99.90;;;;;;4972364;28;21030;-78
2021/10/15 01:16:11;;;;;;;9.95;3.47;;;13.60;99.90;;;;;;4957884;28;20505;-79
2021/10/15 01:18:38;;;;;;;12.13;3.60;;;13.60;99.90;;;;;;4957967;28;21003;-79
2021/10/15 01:21:08;;;;;;;13.68;3.88;;;13.60;99.90;;;;;;4973690;28;20058;-78
2021/10/15 01:23:35;;;;;;;15.35;3.45;;;13.60;99.90;;;;;;4959251;28;20078;-79
2021/10/15 01:26:00;;;;;;;15.90;4.28;;;13.60;99.90;;;;;;4979483;28;20454;-78
2021/10/15 01:28:27;;;;;;;7.40;3.35;;;13.50;99.90;;;;;;4993843;28;20049;-78
2021/10/15 01:30:53;;;;;;;13.27;3.83;;;13.50;99.90;;;;;;4978319;28;20073;-78
2021/10/15 01:33:19;;;;;;;11.13;3.53;;;13.50;99.90;;;;;;4981562;28;20072;-79
2021/10/15 01:35:45;;;;;;;13.73;4.32;;;13.50;99.90;;;;;;4982946;28;20046;-80
2021/10/15 01:38:12;;;;;;;10.15;3.95;;;13.50;99.90;;;;;;4992829;28;20540;-80
2021/10/15 01:40:38;;;;;;;18.55;4.40;;;13.50;99.90;;;;;;4961249;28;20485;-79
2021/10/15 01:43:04;;;;;;;9.68;4.05;;;13.40;99.90;;;;;;4991327;28;20042;-79
2021/10/15 01:45:31;;;;;;;17.67;4.28;;;13.40;99.90;;;;;;4992263;28;20303;-79
2021/10/15 01:47:57;;;;;;;11.13;3.90;;;13.40;99.90;;;;;;5009311;28;20033;-79
2021/10/15 01:50:25;;;;;;;16.25;4.45;;;13.40;99.90;;;;;;4990092;28;20038;-79
2021/10/15 01:52:51;;;;;;;12.77;4.10;;;13.50;99.90;;;;;;4976811;28;20044;-79
2021/10/15 01:55:18;;;;;;;10.05;4.10;;;13.50;99.90;;;;;;4973688;28;20049;-78
2021/10/15 01:57:44;;;;;;;10.27;4.32;;;13.50;99.90;;;;;;4973639;28;20057;-79
2021/10/15 02:00:11;;;;;;;11.25;3.92;;;13.50;99.90;;;;;;4988563;28;20073;-79
2021/10/15 02:02:37;;;;;;;17.55;4.10;;;13.50;99.90;;;;;;4991548;28;20061;-79
2021/10/15 02:05:04;;;;;;;16.58;4.00;;;13.50;99.90;;;;;;4974111;28;20041;-79
2021/10/15 02:07:29;;;;;;;16.10;3.85;;;13.50;99.90;;;;;;4990619;28;20042;-79
2021/10/15 02:09:55;;;;;;;12.20;3.80;;;13.50;99.90;;;;;;4990273;28;20104;-78
2021/10/15 02:12:21;;;;;;;14.13;4.35;;;13.50;99.90;;;;;;5008450;28;20061;-78
2021/10/15 02:14:46;;;;;;;17.58;3.80;;;13.50;99.90;;;;;;4976288;28;20038;-78
2021/10/15 02:17:13;;;;;;;17.80;4.63;;;13.50;99.90;;;;;;4975457;28;20046;-78
2021/10/15 02:19:38;;;;;;;14.60;4.50;;;13.50;99.90;;;;;;4988473;28;20065;-78
2021/10/15 02:22:04;;;;;;;10.88;4.40;;;13.50;99.90;;;;;;5008297;28;20426;-79
2021/10/15 02:24:30;;;;;;;8.48;4.20;;;13.40;99.90;;;;;;4976174;28;20037;-79
2021/10/15 02:26:56;;;;;;;16.45;5.18;;;13.50;99.90;;;;;;4975907;28;21846;-79
2021/10/15 02:29:22;;;;;;;13.48;5.00;;;13.50;99.90;;;;;;4969949;28;20038;-78
2021/10/15 02:31:47;;;;;;;16.63;5.45;;;13.50;99.90;;;;;;4992359;28;20129;-79
2021/10/15 02:34:14;;;;;;;12.98;6.35;;;13.50;99.90;;;;;;4991666;28;20528;-78
2021/10/15 02:36:40;;;;;;;15.48;5.80;;;13.50;99.90;;;;;;4974788;28;20141;-79
2021/10/15 02:39:05;;;;;;;13.15;5.90;;;13.50;99.90;;;;;;4990141;28;20136;-78
2021/10/15 02:41:31;;;;;;;14.25;6.60;;;13.50;99.90;;;;;;4989965;28;20046;-78
2021/10/15 02:43:57;;;;;;;18.42;7.90;;;13.50;99.90;;;;;;4990348;28;20105;-79
2021/10/15 02:46:22;;;;;;;17.38;7.57;;;13.50;99.90;;;;;;4975356;28;20034;-79
2021/10/15 02:48:48;;;;;;;18.80;8.57;;;13.50;99.90;;;;;;4986514;28;20042;-79
2021/10/15 02:51:14;;;;;;;20.73;8.43;;;13.50;99.90;;;;;;4973322;28;20430;-79
2021/10/15 02:53:39;;;;;;;23.40;9.45;;;13.40;99.90;;;;;;4990551;28;20038;-78
2021/10/15 02:56:06;;;;;;;21.20;9.23;;;13.40;99.90;;;;;;4986449;28;20034;-78
2021/10/15 02:58:33;;;;;;;16.77;8.98;;;13.40;99.90;;;;;;4975431;28;20069;-80
2021/10/15 03:00:59;;;;;;;20.02;9.20;;;13.40;99.90;;;;;;4992254;28;20148;-81
2021/10/15 03:03:24;;;;;;;16.75;8.15;;;13.40;99.90;;;;;;4978278;28;20148;-80
2021/10/15 03:05:50;;;;;;;18.42;8.25;;;13.40;99.90;;;;;;4992600;28;20056;-79
2021/10/15 03:08:15;;;;;;;16.80;7.15;;;13.40;99.90;;;;;;4996605;28;20408;-81
2021/10/15 03:10:41;;;;;;;18.77;7.00;;;13.30;99.90;;;;;;4992781;28;20049;-80
2021/10/15 03:13:07;;;;;;;20.00;7.10;;;13.40;99.90;;;;;;4990791;28;20064;-81
2021/10/15 03:15:32;;;;;;;25.90;7.30;;;13.40;99.90;;;;;;4971588;28;20485;-80
2021/10/15 03:17:58;;;;;;;23.08;7.07;;;13.40;99.90;;;;;;4995960;28;20437;-81
2021/10/15 03:20:24;;;;;;;15.25;5.95;;;13.40;99.90;;;;;;4990716;28;20141;-80
2021/10/15 03:22:49;;;;;;;18.00;6.60;;;13.40;99.90;;;;;;4976446;28;20050;-81
2021/10/15 03:25:15;;;;;;;21.15;6.40;;;13.50;99.90;;;;;;4989367;28;20069;-80
2021/10/15 03:27:41;;;;;;;16.65;5.85;;;13.50;99.90;;;;;;4974683;28;20409;-79
2021/10/15 03:30:08;;;;;;;16.83;5.35;;;13.50;99.90;;;;;;4990441;28;20057;-80
2021/10/15 03:32:34;;;;;;;24.30;6.00;;;13.50;99.90;;;;;;4990718;28;20057;-80
2021/10/15 03:35:00;;;;;;;14.38;4.95;;;13.50;99.90;;;;;;4989365;28;20042;-79
2021/10/15 03:37:26;;;;;;;14.23;5.00;;;13.60;99.90;;;;;;4990204;28;20050;-79
2021/10/15 03:39:52;;;;;;;12.90;5.10;;;13.50;99.90;;;;;;4989872;28;20053;-80
2021/10/15 03:42:18;;;;;;;18.65;5.03;;;13.60;99.90;;;;;;4991784;28;20057;-78
2021/10/15 03:44:44;;;;;;;15.45;4.93;;;13.60;99.90;;;;;;4975084;28;20038;-79
2021/10/15 03:47:10;;;;;;;18.17;4.90;;;13.60;99.90;;;;;;4990137;28;20441;-80
2021/10/15 03:49:36;;;;;;;15.25;4.13;;;13.50;99.90;;;;;;4991475;28;20149;-80
2021/10/15 03:52:01;;;;;;;19.88;4.47;;;13.70;99.90;;;;;;4989790;28;20134;-78
2021/10/15 03:54:27;;;;;;;20.48;4.90;;;13.60;99.90;;;;;;4989746;28;20034;-79
2021/10/15 03:56:53;;;;;;;19.70;4.85;;;13.70;99.90;;;;;;4986222;28;20205;-79
2021/10/15 03:59:18;;;;;;;18.42;4.63;;;13.70;99.90;;;;;;4990221;28;20033;-80
2021/10/15 04:01:44;;;;;;;16.77;5.28;;;13.70;99.90;;;;;;4990894;28;20045;-80
2021/10/15 04:04:10;;;;;;;22.13;5.05;;;13.70;99.90;;;;;;4989730;28;20043;-80
2021/10/15 04:06:35;;;;;;;14.93;4.78;;;13.70;99.90;;;;;;4991360;28;20042;-81
2021/10/15 04:09:01;;;;;;;15.60;4.78;;;13.70;99.90;;;;;;4989207;28;20056;-81
2021/10/15 04:11:27;;;;;;;18.67;4.90;;;13.80;99.90;;;;;;4990785;28;20508;-78
2021/10/15 04:13:52;;;;;;;13.93;4.60;;;13.80;99.90;;;;;;4989339;28;20052;-79
2021/10/15 04:16:18;;;;;;;25.70;4.93;;;13.70;99.90;;;;;;4992021;28;20037;-77
2021/10/15 04:18:43;;;;;;;19.52;4.68;;;13.70;99.90;;;;;;4970340;28;20046;-79
2021/10/15 04:21:09;;;;;;;18.52;5.38;;;13.70;99.90;;;;;;4974146;28;20089;-82
2021/10/15 04:23:35;;;;;;;22.05;5.88;;;13.60;99.90;;;;;;4992058;28;20050;-79
2021/10/15 04:26:00;;;;;;;18.70;5.68;;;13.50;99.90;;;;;;4989849;28;20054;-78
2021/10/15 04:28:26;;;;;;;22.08;6.55;;;13.50;99.90;;;;;;4970211;28;20093;-81
2021/10/15 04:30:52;;;;;;;17.88;6.28;;;13.40;99.90;;;;;;4975089;28;20120;-79
2021/10/15 04:33:17;;;;;;;17.88;6.85;;;13.30;99.90;;;;;;4989597;28;20112;-76
2021/10/15 04:35:43;;;;;;;14.73;5.03;;;13.20;99.90;;;;;;4972957;28;20133;-79
2021/10/15 04:38:09;;;;;;;8.73;3.60;;;13.00;99.90;;;;;;4988403;28;20056;-79
2021/10/15 04:40:35;;;;;;;8.45;3.65;;;13.20;99.90;;;;;;4989800;28;20042;-80
2021/10/15 04:43:00;;;;;;;9.32;3.83;;;13.20;99.90;;;;;;4992096;28;20037;-77
2021/10/15 04:45:26;;;;;;;10.93;4.25;;;13.20;99.90;;;;;;4994456;28;20319;-78
2021/10/15 04:47:52;;;;;;;11.93;4.00;;;13.10;99.90;;;;;;4992989;28;20030;-79
2021/10/15 04:50:17;;;;;;;11.77;3.85;;;13.20;99.90;;;;;;4991078;28;20037;-79
2021/10/15 04:52:43;;;;;;;9.35;3.53;;;13.10;99.90;;;;;;4993634;28;20416;-80
2021/10/15 04:55:09;;;;;;;3.78;1.25;;;13.10;99.90;;;;;;4989658;28;20030;-78
2021/10/15 04:57:35;;;;;;;5.57;1.00;;;12.70;99.90;;;;;;4992832;28;20050;-79
2021/10/15 05:00:00;;;;;;;4.05;0.77;;;12.50;99.90;;;;;;4993198;28;20072;-78
2021/10/15 05:02:26;;;;;;;7.35;1.20;;;12.30;99.90;;;;;;4977741;28;20523;-77
2021/10/15 05:04:52;;;;;;;5.88;1.10;;;12.00;99.90;;;;;;4993614;28;20164;-78
2021/10/15 05:07:17;;;;;;;6.65;0.80;;;11.80;99.90;;;;;;4992692;28;20041;-78
2021/10/15 05:09:43;;;;;;;12.98;1.40;;;11.70;99.90;;;;;;4994212;28;20049;-81
2021/10/15 05:12:14;;;;;;;11.40;1.50;;;11.60;99.90;;;;;;4977344;28;20057;-77
2021/10/15 05:14:42;;;;;;;6.35;1.20;;;11.50;99.90;;;;;;4990286;28;20386;-80
2021/10/15 05:17:08;;;;;;;8.70;1.00;;;11.50;99.90;;;;;;4975797;28;20034;-80
2021/10/15 05:19:34;;;;;;;8.40;1.23;;;11.30;99.90;;;;;;4992840;28;20049;-80
2021/10/15 05:22:00;;;;;;;15.57;1.65;;;11.30;99.90;;;;;;5007802;28;20112;-79
2021/10/15 05:24:27;;;;;;;11.15;1.95;;;11.00;99.90;;;;;;4978283;28;20101;-79
2021/10/15 05:26:53;;;;;;;13.85;1.80;;;11.00;99.90;;;;;;4977204;28;20140;-80
2021/10/15 05:29:18;;;;;;;18.33;2.08;;;11.00;99.90;;;;;;4994962;28;20124;-77
2021/10/15 05:31:44;;;;;;;15.60;2.00;;;10.90;99.90;;;;;;4995651;28;20041;-78
2021/10/15 05:34:10;;;;;;;11.43;1.73;;;10.90;99.90;;;;;;4992600;28;20437;-76
2021/10/15 05:36:36;;;;;;;15.00;1.83;;;10.90;99.90;;;;;;4994598;28;20401;-81
2021/10/15 05:39:03;;;;;;;19.58;1.95;;;11.00;99.90;;;;;;4971204;28;20137;-78
2021/10/15 05:41:29;;;;;;;16.27;1.70;;;11.00;99.90;;;;;;4991110;28;20050;-79
2021/10/15 05:43:54;;;;;;;16.35;1.95;;;10.90;99.90;;;;;;4995028;28;20052;-79
2021/10/15 05:46:20;;;;;;;13.00;1.65;;;10.90;99.90;;;;;;4993621;28;20042;-76
2021/10/15 05:48:45;;;;;;;22.85;2.20;;;10.90;99.90;;;;;;4978525;28;20361;-79
2021/10/15 05:51:11;;;;;;;12.20;1.75;;;11.00;99.90;;;;;;4995677;28;20126;-82
2021/10/15 05:53:37;;;;;;;15.07;1.80;;;10.90;99.90;;;;;;4979221;28;20591;-80
2021/10/15 05:58:51;;;;;;;9.30;1.35;;;10.80;99.90;;;;;;5011381;28;20048;-79
2021/10/15 06:01:26;;;;;;;16.08;1.85;;;10.80;99.90;;;;;;4988423;28;20069;-81
2021/10/15 06:04:13;;;;;;;15.88;1.73;;;10.80;99.90;;;;;;4979486;28;20057;-77
2021/10/15 06:14:50;;;;;;;15.35;2.17;;;10.70;99.90;;;;;;5008712;28;20094;-75
2021/10/15 06:17:18;;;;;;;16.20;2.63;;;10.70;99.90;;;;;;4991642;28;20137;-77
2021/10/15 06:19:53;;;;;;;15.85;2.92;;;10.70;99.90;;;;;;4992125;28;20108;-78
2021/10/15 06:22:27;;;;;;;15.48;1.70;;;10.70;99.90;;;;;;4992029;28;20833;-76
2021/10/15 06:24:53;;;;;;;19.55;2.90;;;10.70;99.90;;;;;;4982699;28;20053;-77
2021/10/15 06:27:23;;;;;;;12.40;1.88;;;10.70;99.90;;;;;;4991339;28;20060;-75
2021/10/15 06:29:49;;;;;;;18.48;2.78;;;10.70;99.90;;;;;;4976249;28;20085;-78
2021/10/15 06:32:20;;;;;;;12.27;2.75;;;10.60;99.90;;;;;;5010876;28;20049;-76
2021/10/15 06:34:46;;;;;;;17.52;3.28;;;10.60;99.90;;;;;;4972240;28;20038;-76
2021/10/15 06:37:12;;;;;;;13.93;2.88;;;10.60;99.90;;;;;;4991155;28;20115;-75
2021/10/15 06:39:38;;;;;;;12.18;1.83;;;10.60;99.90;;;;;;4976165;28;20046;-75
2021/10/15 06:42:03;;;;;;;15.02;1.40;;;10.60;99.90;;;;;;4990973;28;20069;-76
2021/10/15 06:44:29;;;;;;;16.92;2.70;;;10.70;99.90;;;;;;4990963;28;20064;-76
2021/10/15 06:46:55;;;;;;;12.48;2.15;;;10.60;99.90;;;;;;4976660;28;20038;-75
2021/10/15 06:49:21;;;;;;;12.25;2.00;;;10.70;99.90;;;;;;5009991;28;20029;-76
2021/10/15 06:51:47;;;;;;;11.27;2.10;;;10.60;99.90;;;;;;4991497;28;20469;-75
2021/10/15 06:54:13;;;;;;;12.23;2.20;;;10.60;99.90;;;;;;4991375;28;20477;-75
2021/10/15 06:56:39;;;;;;;10.60;2.05;;;10.60;99.90;;;;;;4976074;28;20034;-75
2021/10/15 06:59:05;;;;;;;13.20;1.88;;;10.60;99.90;;;;;;4992143;28;20405;-75
2021/10/15 07:01:31;;;;;;;9.63;1.48;;;10.60;99.90;;;;;;4974532;28;20088;-75
2021/10/15 07:03:58;;;;;;;10.00;1.48;;;10.60;99.90;;;;;;4988728;28;20085;-76
2021/10/15 07:06:24;;;;;;;10.55;1.25;;;10.60;99.90;;;;;;4980219;28;20092;-77
2021/10/15 07:08:50;;;;;;;19.23;1.70;;;10.70;99.90;;;;;;4976828;28;20827;-75
2021/10/15 07:11:16;;;;;;;11.45;1.63;;;10.70;99.90;;;;;;4991978;28;20095;-75
2021/10/15 07:13:42;;;;;;;12.38;1.77;;;10.70;99.90;;;;;;4988582;28;20398;-74
2021/10/15 07:16:10;;;;;;;13.20;1.95;;;10.80;99.90;;;;;;4992445;28;20038;-77
2021/10/15 07:18:38;;;;;;;13.25;2.05;;;11.10;99.90;;;;;;4977091;28;20038;-79
2021/10/15 07:21:04;;;;;;;10.75;1.73;;;10.90;99.90;;;;;;4986778;28;20108;-78
2021/10/15 07:23:30;;;;;;;11.10;1.70;;;10.90;99.90;;;;;;4985519;28;20044;-79
2021/10/15 07:25:57;;;;;;;10.23;1.40;;;10.90;99.90;;;;;;4992090;28;20050;-79
2021/10/15 07:28:23;;;;;;;18.58;2.30;;;10.90;99.90;;;;;;4991571;28;20061;-81
2021/10/15 07:30:49;;;;;;;14.65;1.88;;;10.80;99.90;;;;;;4982714;28;20049;-78
2021/10/15 07:33:15;;;;;;;12.77;1.50;;;10.80;99.90;;;;;;4972624;28;20034;-80
2021/10/15 07:35:41;;;;;;;12.32;1.77;;;10.80;99.90;;;;;;4976829;28;20053;-78
2021/10/15 07:38:08;;;;;;;14.00;2.30;;;10.80;99.90;;;;;;4983890;28;20046;-79
2021/10/15 07:40:33;;;;;;;16.95;2.53;;;10.80;99.90;;;;;;4995153;28;20160;-77
2021/10/15 07:42:59;;;;;;;10.80;2.08;;;10.80;99.90;;;;;;4977497;28;20129;-78
2021/10/15 07:45:28;;;;;;;16.85;2.70;;;10.80;99.90;;;;;;4980748;28;20050;-81
2021/10/15 07:47:54;;;;;;;14.45;2.45;;;10.80;99.90;;;;;;4973266;28;20384;-79
2021/10/15 07:50:20;;;;;;;9.82;1.80;;;10.80;99.90;;;;;;4990699;28;20038;-82
2021/10/15 07:52:46;;;;;;;13.98;2.35;;;10.80;99.90;;;;;;4985202;28;20031;-82
2021/10/15 07:55:12;;;;;;;14.63;2.42;;;10.80;99.90;;;;;;4966860;28;20038;-78
2021/10/15 07:57:39;;;;;;;19.95;2.78;;;10.80;99.90;;;;;;4986792;28;20057;-84
2021/10/15 08:00:07;;;;;;;19.75;2.78;;;10.80;99.90;;;;;;4957916;28;20129;-81
2021/10/15 08:02:33;;;;;;;19.95;2.42;;;10.80;99.90;;;;;;4976919;28;20088;-79
2021/10/15 08:04:58;;;;;;;17.13;2.22;;;10.80;99.90;;;;;;4993207;28;20449;-80
2021/10/15 08:07:24;;;;;;;17.33;2.10;;;10.90;99.90;;;;;;4961272;28;20504;-79
2021/10/15 08:09:50;;;;;;;21.40;2.15;;;10.90;99.90;;;;;;4968901;28;20123;-80
2021/10/15 08:12:15;;;;;;;14.23;1.95;;;11.00;99.90;;;;;;5012072;28;20045;-83
2021/10/15 08:14:41;;;;;;;21.90;2.13;;;11.20;99.90;;;;;;4993098;28;20042;-80
2021/10/15 08:17:07;;;;;;;20.85;2.05;;;11.10;99.90;;;;;;4962609;28;20046;-82
2021/10/15 08:19:33;;;;;;;20.38;2.47;;;11.30;99.90;;;;;;4980372;28;20058;-81
2021/10/15 08:21:58;;;;;;;21.75;2.80;;;11.30;99.90;;;;;;4980982;28;20481;-81
2021/10/15 08:24:24;;;;;;;17.40;2.58;;;11.40;99.90;;;;;;5000623;28;20056;-81
2021/10/15 08:26:51;;;;;;;19.75;2.63;;;11.90;99.90;;;;;;5000924;28;20049;-82
2021/10/15 08:29:17;;;;;;;21.02;2.72;;;11.60;99.90;;;;;;5001030;28;20079;-80
2021/10/15 08:31:43;;;;;;;22.17;3.25;;;11.60;99.90;;;;;;4998296;28;20409;-80
2021/10/15 08:34:10;;;;;;;15.13;2.90;;;11.70;99.90;;;;;;4996301;28;20152;-81
2021/10/15 08:36:38;;;;;;;21.33;2.97;;;11.70;99.90;;;;;;5016636;28;20061;-81
2021/10/15 08:39:05;;;;;;;17.92;2.40;;;11.90;99.90;;;;;;5002618;28;20049;-82
2021/10/15 08:41:31;;;;;;;19.95;2.30;;;11.90;99.90;;;;;;5019002;28;20041;-81
2021/10/15 08:43:58;;;;;;;26.45;3.17;;;12.00;99.90;;;;;;4976224;28;20041;-80
2021/10/15 08:46:24;;;;;;;14.32;2.58;;;12.20;99.90;;;;;;4998032;28;20042;-80
2021/10/15 08:48:51;;;;;;;21.02;2.67;;;12.00;99.90;;;;;;4971293;28;20042;-78
2021/10/15 08:51:20;;;;;;;19.90;2.40;;;12.10;99.90;;;;;;4977060;28;20061;-80
2021/10/15 08:53:55;;;;;;;18.13;2.70;;;12.20;99.90;;;;;;4978449;28;20041;-79
2021/10/15 08:56:23;;;;;;;13.00;2.60;;;12.30;99.90;;;;;;4982141;28;20042;-78
2021/10/15 08:58:57;;;;;;;17.88;2.13;;;12.30;99.90;;;;;;4976899;28;20476;-80
2021/10/15 09:01:26;;;;;;;19.08;2.40;;;12.30;99.90;;;;;;4991001;28;20048;-80
2021/10/15 09:04:19;;;;;;;23.98;3.35;;;12.40;99.90;;;;;;4975785;28;20061;-80
2021/10/15 09:06:47;;;;;;;17.33;2.58;;;12.50;99.90;;;;;;4993627;28;20052;-80
2021/10/15 09:09:13;;;;;;;20.83;3.53;;;12.50;99.90;;;;;;4995477;28;20401;-80
2021/10/15 09:11:45;;;;;;;23.95;3.90;;;12.60;99.90;;;;;;4995246;28;20113;-80
2021/10/15 09:14:26;;;;;;;25.88;3.30;;;12.50;99.90;;;;;;4990519;28;20116;-80
2021/10/15 09:16:52;;;;;;;16.52;2.42;;;12.50;99.90;;;;;;4974465;28;20048;-79
2021/10/15 09:19:45;;;;;;;17.00;2.72;;;12.50;99.90;;;;;;4978647;28;20045;-79
2021/10/15 09:22:14;;;;;;;25.30;3.28;;;12.60;99.90;;;;;;4990270;28;20461;-79
2021/10/15 09:24:44;;;;;;;24.67;3.00;;;12.60;99.90;;;;;;4984138;28;20046;-76
2021/10/15 09:27:47;;;;;;;28.38;3.58;;;12.70;99.90;;;;;;4993347;28;20444;-80
2021/10/15 09:30:14;;;;;;;19.85;3.38;;;12.70;99.90;;;;;;4991334;28;20052;-76
2021/10/15 09:32:49;;;;;;;17.80;2.65;;;12.80;99.90;;;;;;4991430;28;20507;-81
2021/10/15 09:35:20;;;;;;;23.92;3.55;;;12.90;99.90;;;;;;4976898;28;20121;-80
2021/10/15 09:37:49;;;;;;;16.60;2.75;;;13.00;99.90;;;;;;4993544;28;20041;-77
2021/10/15 09:40:17;;;;;;;27.45;3.97;;;13.00;99.90;;;;;;4976879;28;20076;-81
2021/10/15 09:42:44;;;;;;;25.35;3.72;;;13.10;99.90;;;;;;4976168;28;20096;-77
2021/10/15 09:45:17;;;;;;;23.90;3.50;;;13.20;99.90;;;;;;4992239;28;20049;-77
2021/10/15 09:47:54;;;;;;;17.05;3.10;;;13.20;99.90;;;;;;4967115;28;20437;-79
2021/10/15 09:50:23;;;;;;;21.42;3.60;;;13.30;99.90;;;;;;4991868;28;20034;-78
2021/10/15 09:52:52;;;;;;;21.48;3.53;;;13.20;99.90;;;;;;4976859;28;20065;-77
2021/10/15 09:55:31;;;;;;;22.88;3.38;;;13.00;99.90;;;;;;4991328;28;20042;-77
2021/10/15 09:58:13;;;;;;;21.00;2.88;;;13.00;99.90;;;;;;4992859;28;20048;-77
2021/10/15 10:00:40;;;;;;;25.67;3.80;;;13.10;99.90;;;;;;4985299;28;20046;-77
2021/10/15 10:03:06;;;;;;;18.13;2.92;;;13.10;99.90;;;;;;4981992;28;20496;-79
2021/10/15 10:05:32;;;;;;;25.73;2.95;;;13.20;99.90;;;;;;4992299;28;20489;-79
2021/10/15 10:07:58;;;;;;;21.58;2.85;;;13.30;99.90;;;;;;4979547;28;20052;-80
2021/10/15 10:10:30;;;;;;;19.58;2.47;;;13.40;99.90;;;;;;4977486;28;20050;-80
2021/10/15 10:12:57;;;;;;;18.60;2.78;;;13.60;99.90;;;;;;4994755;28;20496;-80
2021/10/15 10:15:28;;;;;;;13.30;2.63;;;13.70;99.90;;;;;;4995066;28;20037;-78
2021/10/15 10:21:05;;;;;;;23.85;3.35;;;14.10;99.90;;;;;;4993397;28;20145;-80
2021/10/15 10:23:36;;;;;;;24.13;4.15;;;13.70;99.90;;;;;;4979119;28;20046;-81
2021/10/15 10:26:09;;;;;;;26.40;3.53;;;13.40;99.90;;;;;;4995075;28;20449;-80
2021/10/15 10:28:35;;;;;;;18.05;3.50;;;13.10;99.90;;;;;;4994196;28;20147;-81
2021/10/15 10:31:05;;;;;;;18.17;2.85;;;13.00;99.90;;;;;;4980338;28;20050;-82
2021/10/15 10:33:50;;;;;;;31.95;4.63;;;12.80;99.90;;;;;;4992431;28;20034;-84
2021/10/15 10:36:16;;;;;;;18.58;3.22;;;12.80;99.90;;;;;;4990979;28;20061;-83
2021/10/15 10:38:41;;;;;;;24.92;4.10;;;12.80;99.90;;;;;;4990245;28;20030;-81
2021/10/15 10:41:07;;;;;;;24.23;3.63;;;12.90;99.90;;;;;;4989818;28;20108;-80
2021/10/15 10:43:45;;;;;;;19.85;3.75;;;13.00;99.90;;;;;;4991225;28;20061;-79
2021/10/15 10:46:25;;;;;;;20.60;3.45;;;13.30;99.90;;;;;;4990509;28;20465;-81
2021/10/15 10:48:50;;;;;;;13.68;2.45;;;13.50;99.90;;;;;;4990132;28;20050;-81
2021/10/15 10:51:31;;;;;;;15.57;3.20;;;13.80;99.90;;;;;;4989854;28;20053;-81
2021/10/15 10:54:05;;;;;;;15.85;2.80;;;13.80;99.90;;;;;;4990759;28;20033;-81
2021/10/15 10:56:43;;;;;;;20.23;3.25;;;13.90;99.90;;;;;;4975254;28;20045;-81
2021/10/15 10:59:16;;;;;;;11.63;2.70;;;13.90;99.90;;;;;;5009226;28;20327;-79
2021/10/15 11:02:01;;;;;;;18.45;3.30;;;14.00;99.90;;;;;;4991951;28;20041;-80
2021/10/15 11:04:34;;;;;;;9.00;2.33;;;14.10;99.90;;;;;;4975315;28;20033;-77
2021/10/15 11:07:04;;;;;;;15.25;2.50;;;13.90;99.90;;;;;;4975654;28;20096;-75
2021/10/15 11:09:43;;;;;;;12.35;2.55;;;14.00;99.90;;;;;;4990778;28;20038;-79
2021/10/15 11:19:04;;;;;;;15.98;2.80;;;14.50;99.90;;;;;;4910838;28;20127;-83
2021/10/15 11:21:30;;;;;;;25.20;3.15;;;14.40;99.90;;;;;;4895416;29;20500;-83
2021/10/15 11:24:11;;;;;;;22.75;3.53;;;14.50;99.90;;;;;;4895933;29;20055;-81
2021/10/15 11:26:37;;;;;;;19.13;3.15;;;14.30;99.90;;;;;;4904488;29;20488;-81
2021/10/15 11:29:02;;;;;;;19.98;3.25;;;14.20;99.90;;;;;;4898525;29;20135;-81
2021/10/15 11:31:28;;;;;;;15.50;3.17;;;14.10;99.90;;;;;;4907216;29;20040;-79
2021/10/15 11:34:06;;;;;;;21.00;3.03;;;14.00;99.90;;;;;;4910455;29;20444;-80
2021/10/15 11:36:31;;;;;;;18.40;3.03;;;14.10;99.90;;;;;;4895497;29;20075;-81
2021/10/15 11:39:00;;;;;;;16.77;3.08;;;13.90;99.90;;;;;;4907707;29;20081;-80
2021/10/15 11:41:26;;;;;;;19.98;3.35;;;14.10;99.90;;;;;;4895059;29;20046;-83
2021/10/15 11:43:52;;;;;;;20.40;3.72;;;14.20;99.90;;;;;;4909272;29;20056;-82
2021/10/15 11:46:23;;;;;;;17.75;3.20;;;14.50;99.90;;;;;;4894605;29;20128;-84
2021/10/15 11:48:52;;;;;;;19.83;3.22;;;14.40;99.90;;;;;;4897613;29;20072;-84
2021/10/15 11:51:25;;;;;;;17.52;3.13;;;14.20;99.90;;;;;;4894393;29;20447;-81
2021/10/15 11:53:54;;;;;;;16.13;2.88;;;13.90;99.90;;;;;;4879283;29;20100;-83
2021/10/15 11:56:22;;;;;;;13.23;2.60;;;13.70;99.90;;;;;;4968607;28;20069;-83
2021/10/15 11:59:11;;;;;;;20.67;3.08;;;13.40;99.90;;;;;;4983493;28;20057;-84
2021/10/15 12:01:41;;;;;;;16.27;2.83;;;13.20;99.90;;;;;;4988089;28;20088;-83
2021/10/15 12:04:17;;;;;;;19.67;3.17;;;13.10;99.90;;;;;;4980208;28;20122;-84
2021/10/15 12:06:51;;;;;;;21.10;3.58;;;13.60;99.90;;;;;;4972593;28;20050;-83
2021/10/15 12:09:21;;;;;;;15.52;2.75;;;13.70;99.90;;;;;;4990786;28;20037;-80
2021/10/15 12:12:06;;;;;;;20.80;3.03;;;14.10;99.90;;;;;;4977284;28;20382;-82
2021/10/15 12:14:34;;;;;;;12.60;2.45;;;14.30;99.90;;;;;;4987280;28;20053;-82
2021/10/15 12:17:02;;;;;;;14.80;2.33;;;14.20;99.90;;;;;;4974644;28;20049;-81
2021/10/15 12:19:32;;;;;;;14.52;2.20;;;13.90;99.90;;;;;;4983160;28;20048;-82
2021/10/15 12:22:10;;;;;;;10.73;1.83;;;13.90;99.90;;;;;;4981594;28;20493;-82
2021/10/15 12:24:44;;;;;;;11.88;1.80;;;13.70;99.90;;;;;;4972759;28;20438;-82
2021/10/15 12:27:46;;;;;;;11.32;1.80;;;14.00;99.90;;;;;;4987898;28;20037;-84
2021/10/15 12:30:24;;;;;;;14.95;2.28;;;14.10;99.90;;;;;;4927111;29;20047;-82
2021/10/15 12:32:52;;;;;;;12.02;1.80;;;14.10;99.90;;;;;;4912819;29;20076;-82
2021/10/15 12:35:20;;;;;;;10.50;1.95;;;14.20;99.90;;;;;;4912308;29;20138;-82
2021/10/15 12:37:52;;;;;;;11.55;1.63;;;14.60;99.90;;;;;;4896515;29;20141;-83
2021/10/15 12:40:29;;;;;;;10.35;2.17;;;14.20;99.90;;;;;;4894959;29;20147;-84
2021/10/15 12:43:16;;;;;;;15.73;2.55;;;13.90;99.90;;;;;;4881098;29;20069;-82
2021/10/15 12:45:55;;;;;;;13.70;2.05;;;13.80;99.90;;;;;;4827049;29;20445;-82
2021/10/15 12:48:27;;;;;;;17.98;2.55;;;14.00;99.90;;;;;;4858001;29;20089;-83
2021/10/15 12:51:32;;;;;;;13.55;2.60;;;14.00;99.90;;;;;;4857612;29;20052;-84
2021/10/15 12:54:00;;;;;;;12.88;1.98;;;13.90;99.90;;;;;;4843345;29;20040;-82
2021/10/15 13:00:47;;;;;;;14.02;2.50;;;13.50;99.90;;;;;;4802673;29;20050;-82
2021/10/15 13:03:21;;;;;;;10.80;2.00;;;13.70;99.90;;;;;;4793988;29;20069;-82
2021/10/15 13:08:49;;;;;;;12.25;1.90;;;14.00;99.90;;;;;;4890300;29;20538;-84
2021/10/15 13:11:19;;;;;;;13.70;2.00;;;14.10;99.90;;;;;;4843920;29;20124;-89